createdAt,value
2023-04-19T00:02:18.909Z,9.70
2023-04-19T00:05:05.451Z,9.70
2023-04-19T00:07:54.322Z,9.70
2023-04-19T00:10:40.082Z,9.70
2023-04-19T00:13:25.540Z,9.70
2023-04-19T00:16:11.112Z,9.70
2023-04-19T00:18:56.868Z,9.70
2023-04-19T00:21:42.178Z,9.60
2023-04-19T00:24:27.621Z,9.60
2023-04-19T00:27:13.216Z,9.60
2023-04-19T00:29:58.648Z,9.60
2023-04-19T00:32:44.000Z,9.60
2023-04-19T00:35:29.535Z,9.60
2023-04-19T00:38:15.650Z,9.60
2023-04-19T00:41:03.813Z,9.80
2023-04-19T00:43:49.317Z,10.00
2023-04-19T00:46:36.450Z,10.10
2023-04-19T00:49:23.635Z,10.20
2023-04-19T00:52:08.949Z,10.20
2023-04-19T00:54:57.208Z,10.20
2023-04-19T00:57:42.693Z,10.30
2023-04-19T01:00:28.310Z,10.40
2023-04-19T01:03:13.947Z,10.50
2023-04-19T01:05:59.621Z,10.60
2023-04-19T01:08:46.369Z,10.70
2023-04-19T01:11:34.391Z,10.80
2023-04-19T01:14:20.339Z,10.90
2023-04-19T01:17:07.444Z,11.00
2023-04-19T01:20:03.873Z,11.00
2023-04-19T01:22:52.352Z,11.10
2023-04-19T01:25:40.611Z,11.20
2023-04-19T01:28:26.324Z,11.20
2023-04-19T01:31:11.746Z,11.30
2023-04-19T01:33:57.205Z,11.20
2023-04-19T01:36:42.558Z,11.20
2023-04-19T01:39:28.200Z,11.00
2023-04-19T01:42:13.655Z,10.90
2023-04-19T01:44:58.998Z,10.70
2023-04-19T01:47:48.251Z,10.50
2023-04-19T01:50:37.269Z,10.30
2023-04-19T01:53:23.558Z,10.20
2023-04-19T01:56:09.004Z,10.10
2023-04-19T01:58:56.769Z,10.00
2023-04-19T02:01:42.162Z,9.90
2023-04-19T02:04:27.422Z,9.80
2023-04-19T02:07:13.335Z,9.80
2023-04-19T02:09:59.748Z,9.70
2023-04-19T02:12:44.926Z,9.70
2023-04-19T02:15:30.547Z,9.70
2023-04-19T02:18:17.500Z,9.80
2023-04-19T02:21:05.673Z,9.80
2023-04-19T02:23:51.105Z,9.80
2023-04-19T02:26:36.669Z,9.90
2023-04-19T02:29:23.165Z,10.00
2023-04-19T02:32:08.536Z,10.10
2023-04-19T02:34:54.093Z,10.20
2023-04-19T02:37:39.596Z,10.20
2023-04-19T02:40:25.812Z,10.40
2023-04-19T02:43:11.404Z,10.40
2023-04-19T02:45:58.572Z,10.40
2023-04-19T02:48:44.030Z,10.50
2023-04-19T02:51:29.901Z,10.50
2023-04-19T02:54:15.936Z,10.50
2023-04-19T02:57:03.356Z,10.50
2023-04-19T02:59:49.090Z,10.60
2023-04-19T03:02:34.833Z,10.60
2023-04-19T03:05:22.023Z,10.60
2023-04-19T03:08:07.709Z,10.60
2023-04-19T03:10:53.469Z,10.60
2023-04-19T03:13:40.850Z,10.60
2023-04-19T03:16:27.200Z,10.60
2023-04-19T03:19:12.951Z,10.60
2023-04-19T03:22:05.093Z,10.60
2023-04-19T03:24:54.412Z,10.70
2023-04-19T03:27:42.212Z,10.70
2023-04-19T03:30:31.245Z,10.70
2023-04-19T03:33:16.594Z,10.70
2023-04-19T03:36:02.227Z,10.80
2023-04-19T03:38:47.576Z,10.80
2023-04-19T03:41:40.837Z,10.80
2023-04-19T03:44:36.912Z,10.90
2023-04-19T03:47:24.638Z,10.90
2023-04-19T03:50:13.982Z,10.90
2023-04-19T03:53:04.244Z,11.00
2023-04-19T03:55:50.356Z,11.00
2023-04-19T03:58:37.645Z,11.00
2023-04-19T04:01:26.925Z,11.00
2023-04-19T04:04:13.472Z,11.00
2023-04-19T04:06:59.318Z,11.00
2023-04-19T04:09:46.906Z,11.10
2023-04-19T04:12:41.530Z,11.10
2023-04-19T04:15:29.509Z,11.10
2023-04-19T04:18:16.360Z,11.10
2023-04-19T04:21:01.784Z,11.10
2023-04-19T04:23:50.101Z,11.20
2023-04-19T04:26:57.907Z,11.20
2023-04-19T04:29:49.642Z,11.20
2023-04-19T04:32:36.030Z,11.20
2023-04-19T04:35:26.258Z,11.20
2023-04-19T04:38:24.544Z,11.30
2023-04-19T04:41:12.552Z,11.30
2023-04-19T04:44:23.045Z,11.30
2023-04-19T04:47:06.492Z,11.30
2023-04-19T04:50:02.439Z,11.30
2023-04-19T04:52:48.519Z,11.30
2023-04-19T04:55:42.449Z,11.40
2023-04-19T04:58:28.268Z,11.30
2023-04-19T05:01:21.557Z,11.30
2023-04-19T05:04:07.209Z,11.20
2023-04-19T05:06:52.785Z,11.10
2023-04-19T05:09:45.395Z,11.10
2023-04-19T05:12:35.184Z,11.00
2023-04-19T05:15:20.906Z,11.00
2023-04-19T05:18:10.239Z,10.90
2023-04-19T05:21:00.394Z,10.90
2023-04-19T05:23:50.054Z,10.80
2023-04-19T05:26:36.667Z,10.80
2023-04-19T05:29:23.578Z,10.70
2023-04-19T05:32:12.094Z,10.70
2023-04-19T05:35:03.748Z,10.70
2023-04-19T05:37:49.017Z,10.70
2023-04-19T05:40:39.383Z,10.70
2023-04-19T05:43:25.177Z,10.70
2023-04-19T05:46:10.653Z,10.70
2023-04-19T05:48:55.987Z,10.60
2023-04-19T05:52:00.546Z,10.60
2023-04-19T05:54:57.936Z,10.60
2023-04-19T05:57:43.640Z,10.60
2023-04-19T06:00:29.051Z,10.60
2023-04-19T06:03:22.464Z,10.60
2023-04-19T06:06:11.459Z,10.60
2023-04-19T06:08:57.204Z,10.60
2023-04-19T06:11:49.972Z,10.60
2023-04-19T06:14:38.109Z,10.70
2023-04-19T06:17:25.300Z,10.70
2023-04-19T06:20:11.026Z,10.70
2023-04-19T06:22:56.431Z,10.70
2023-04-19T06:25:44.713Z,10.70
2023-04-19T06:28:30.090Z,10.70
2023-04-19T06:31:15.581Z,10.70
2023-04-19T06:34:00.865Z,10.80
2023-04-19T06:36:46.244Z,10.70
2023-04-19T06:39:31.865Z,10.80
2023-04-19T06:42:20.073Z,10.80
2023-04-19T06:45:06.114Z,10.80
2023-04-19T06:47:51.491Z,10.80
2023-04-19T06:50:36.835Z,10.90
2023-04-19T06:53:22.911Z,10.90
2023-04-19T06:56:09.143Z,11.00
2023-04-19T06:58:54.994Z,11.00
2023-04-19T07:01:41.434Z,11.00
2023-04-19T07:04:27.963Z,11.10
2023-04-19T07:07:13.461Z,11.10
2023-04-19T07:09:58.705Z,11.10
2023-04-19T07:12:44.414Z,11.20
2023-04-19T07:15:30.348Z,11.30
2023-04-19T07:18:16.354Z,11.30
2023-04-19T07:21:02.424Z,11.40
2023-04-19T07:23:50.644Z,11.40
2023-04-19T07:26:39.200Z,11.50
2023-04-19T07:29:24.584Z,11.50
2023-04-19T07:32:09.945Z,11.50
2023-04-19T07:34:55.562Z,11.60
2023-04-19T07:37:40.798Z,11.70
2023-04-19T07:40:26.366Z,11.80
2023-04-19T07:43:11.884Z,11.80
2023-04-19T07:45:57.534Z,11.90
2023-04-19T07:48:43.026Z,12.00
2023-04-19T07:51:29.242Z,12.00
2023-04-19T07:54:16.764Z,12.00
2023-04-19T07:57:03.529Z,12.10
2023-04-19T07:59:49.056Z,12.20
2023-04-19T08:02:34.435Z,12.30
2023-04-19T08:05:20.441Z,12.30
2023-04-19T08:08:05.962Z,12.40
2023-04-19T08:10:54.808Z,12.50
2023-04-19T08:13:40.522Z,12.50
2023-04-19T08:17:06.535Z,12.60
2023-04-19T08:19:38.495Z,12.60
2023-04-19T08:22:23.874Z,12.70
2023-04-19T08:25:09.900Z,12.70
2023-04-19T08:27:57.568Z,12.80
2023-04-19T08:30:43.093Z,12.80
2023-04-19T08:33:28.871Z,12.90
2023-04-19T08:36:17.140Z,13.00
2023-04-19T08:39:20.760Z,13.00
2023-04-19T08:42:28.804Z,13.10
2023-04-19T08:45:28.383Z,13.10
2023-04-19T08:48:15.794Z,13.10
2023-04-19T08:51:05.596Z,13.20
2023-04-19T08:53:51.638Z,13.30
2023-04-19T08:56:37.485Z,13.30
2023-04-19T08:59:22.913Z,13.30
2023-04-19T09:02:08.716Z,13.40
2023-04-19T09:04:54.973Z,13.40
2023-04-19T09:07:40.900Z,13.40
2023-04-19T09:10:29.296Z,13.40
2023-04-19T09:13:17.933Z,13.50
2023-04-19T09:16:05.484Z,13.50
2023-04-19T09:19:05.454Z,13.60
2023-04-19T09:21:59.926Z,13.60
2023-04-19T09:27:36.258Z,13.60
2023-04-19T09:30:32.368Z,13.70
2023-04-19T09:33:36.252Z,13.70
2023-04-19T09:36:31.454Z,13.70
2023-04-19T09:39:33.249Z,13.80
2023-04-19T09:42:36.057Z,13.80
2023-04-19T09:45:31.227Z,13.90
2023-04-19T09:48:16.697Z,14.00
2023-04-19T09:51:07.421Z,14.20
2023-04-19T09:53:56.124Z,14.20
2023-04-19T09:56:41.672Z,14.30
2023-04-19T09:59:28.523Z,14.30
2023-04-19T10:02:15.875Z,14.20
2023-04-19T10:07:50.334Z,14.30
2023-04-19T10:13:26.878Z,14.40
2023-04-19T10:16:19.472Z,14.50
2023-04-19T10:19:12.073Z,14.50
2023-04-19T10:21:58.226Z,14.50
2023-04-19T10:25:11.284Z,14.50
2023-04-19T10:27:57.333Z,14.60
2023-04-19T10:31:06.117Z,14.60
2023-04-19T10:33:51.728Z,14.80
2023-04-19T10:36:38.428Z,14.80
2023-04-19T10:39:43.761Z,14.80
2023-04-19T10:43:07.892Z,14.90
2023-04-19T10:45:53.703Z,14.90
2023-04-19T10:48:43.893Z,15.00
2023-04-19T10:51:34.383Z,15.10
2023-04-19T10:54:35.926Z,15.30
2023-04-19T10:57:21.693Z,15.50
2023-04-19T11:00:23.075Z,15.50
2023-04-19T11:03:48.324Z,15.70
2023-04-19T11:06:34.808Z,15.80
2023-04-19T11:09:29.031Z,16.00
2023-04-19T11:12:17.822Z,16.30
2023-04-19T11:15:05.388Z,16.50
2023-04-19T11:18:00.934Z,16.90
2023-04-19T11:20:54.940Z,17.90
2023-04-19T11:23:41.565Z,19.20
2023-04-19T11:26:27.285Z,19.10
2023-04-19T11:29:13.618Z,19.30
2023-04-19T11:32:00.646Z,19.60
2023-04-19T11:34:45.810Z,20.30
2023-04-19T11:37:36.497Z,20.90
2023-04-19T11:40:24.127Z,21.30
2023-04-19T11:43:09.615Z,21.80
2023-04-19T11:45:55.337Z,22.30
2023-04-19T11:48:52.954Z,23.00
2023-04-19T11:51:42.576Z,23.50
2023-04-19T11:54:28.563Z,24.10
2023-04-19T11:57:13.823Z,24.90
2023-04-19T12:00:12.174Z,25.70
2023-04-19T12:02:59.535Z,26.30
2023-04-19T12:05:59.037Z,26.90
2023-04-19T12:08:50.385Z,27.50
2023-04-19T12:11:51.719Z,28.10
2023-04-19T12:14:37.121Z,28.90
2023-04-19T12:17:22.493Z,28.90
2023-04-19T12:20:08.913Z,29.40
2023-04-19T12:22:54.201Z,29.90
2023-04-19T12:25:40.925Z,30.00
2023-04-19T12:28:26.293Z,30.40
2023-04-19T12:31:11.818Z,30.60
2023-04-19T12:33:57.094Z,30.50
2023-04-19T12:36:42.741Z,30.50
2023-04-19T12:39:28.905Z,30.80
2023-04-19T12:42:14.493Z,30.80
2023-04-19T12:44:59.764Z,31.00
2023-04-19T12:47:47.216Z,31.10
2023-04-19T12:50:32.753Z,31.60
2023-04-19T12:53:21.438Z,32.30
2023-04-19T12:56:07.498Z,32.50
2023-04-19T12:58:54.173Z,32.50
2023-04-19T13:01:39.673Z,32.60
2023-04-19T13:04:25.349Z,32.80
2023-04-19T13:07:10.984Z,33.40
2023-04-19T13:09:57.046Z,33.40
2023-04-19T13:12:42.503Z,33.00
2023-04-19T13:15:30.549Z,33.20
2023-04-19T13:18:16.083Z,33.80
2023-04-19T13:21:01.477Z,34.30
2023-04-19T13:23:46.933Z,34.40
2023-04-19T13:26:34.114Z,34.10
2023-04-19T13:29:19.600Z,33.80
2023-04-19T13:32:12.201Z,33.50
2023-04-19T13:34:57.697Z,33.60
2023-04-19T13:37:47.717Z,33.70
2023-04-19T13:40:33.002Z,33.50
2023-04-19T13:43:18.621Z,34.30
2023-04-19T13:46:04.100Z,34.80
2023-04-19T13:48:49.655Z,34.80
2023-04-19T13:51:46.331Z,35.00
2023-04-19T13:54:35.300Z,34.90
2023-04-19T13:57:26.757Z,34.80
2023-04-19T14:00:13.073Z,34.50
2023-04-19T14:02:59.015Z,34.40
2023-04-19T14:05:44.663Z,34.70
2023-04-19T14:08:30.854Z,35.10
2023-04-19T14:11:20.962Z,34.90
2023-04-19T14:14:06.539Z,34.70
2023-04-19T14:16:53.465Z,34.70
2023-04-19T14:19:38.881Z,34.60
2023-04-19T14:22:24.252Z,34.40
2023-04-19T14:25:10.212Z,34.80
2023-04-19T14:27:55.558Z,34.70
2023-04-19T14:30:41.027Z,34.70
2023-04-19T14:33:26.738Z,35.10
2023-04-19T14:36:12.584Z,35.80
2023-04-19T14:39:01.029Z,35.80
2023-04-19T14:41:46.426Z,35.70
2023-04-19T14:44:31.973Z,35.30
2023-04-19T14:47:17.539Z,35.20
2023-04-19T14:50:03.777Z,34.90
2023-04-19T14:52:48.757Z,34.50
2023-04-19T14:55:34.381Z,34.90
2023-04-19T14:58:19.748Z,35.20
2023-04-19T15:01:12.548Z,35.40
2023-04-19T15:03:58.141Z,35.20
2023-04-19T15:06:43.770Z,35.40
2023-04-19T15:09:29.140Z,35.30
2023-04-19T15:12:14.455Z,35.40
2023-04-19T15:15:01.875Z,35.80
2023-04-19T15:17:47.565Z,35.90
2023-04-19T15:20:33.078Z,35.80
2023-04-19T15:23:18.385Z,35.70
2023-04-19T15:26:04.006Z,36.10
2023-04-19T15:28:50.076Z,36.20
2023-04-19T15:31:35.163Z,36.30
2023-04-19T15:34:20.627Z,35.80
2023-04-19T15:37:06.565Z,35.80
2023-04-19T15:39:54.726Z,36.00
2023-04-19T15:42:40.342Z,36.20
2023-04-19T15:45:25.892Z,36.30
2023-04-19T15:48:11.196Z,36.10
2023-04-19T15:50:56.632Z,35.40
2023-04-19T15:53:42.566Z,35.00
2023-04-19T15:56:27.669Z,34.80
2023-04-19T15:59:13.084Z,34.70
2023-04-19T16:02:01.166Z,34.50
2023-04-19T16:04:48.123Z,34.40
2023-04-19T16:07:33.822Z,34.20
2023-04-19T16:10:19.302Z,33.70
2023-04-19T16:13:05.778Z,33.90
2023-04-19T16:15:51.233Z,33.70
2023-04-19T16:18:36.430Z,33.80
2023-04-19T16:21:22.261Z,33.60
2023-04-19T16:24:07.910Z,33.30
2023-04-19T16:26:53.376Z,33.20
2023-04-19T16:29:38.769Z,33.10
2023-04-19T16:32:24.233Z,33.10
2023-04-19T16:35:10.059Z,33.00
2023-04-19T16:37:57.654Z,33.00
2023-04-19T16:40:46.064Z,32.50
2023-04-19T16:43:34.122Z,32.10
2023-04-19T16:46:19.284Z,31.90
2023-04-19T16:49:04.638Z,31.80
2023-04-19T16:51:50.091Z,32.00
2023-04-19T16:54:35.920Z,31.50
2023-04-19T16:57:22.345Z,31.20
2023-04-19T17:00:08.949Z,30.70
2023-04-19T17:02:54.321Z,30.40
2023-04-19T17:05:40.412Z,30.10
2023-04-19T17:08:26.399Z,29.70
2023-04-19T17:11:11.355Z,29.20
2023-04-19T17:13:57.003Z,28.90
2023-04-19T17:16:42.307Z,28.70
2023-04-19T17:19:30.273Z,28.80
2023-04-19T17:22:16.319Z,28.70
2023-04-19T17:25:08.352Z,28.80
2023-04-19T17:27:53.644Z,28.80
2023-04-19T17:30:39.034Z,28.30
2023-04-19T17:33:24.368Z,27.70
2023-04-19T17:36:09.837Z,27.20
2023-04-19T17:38:55.265Z,26.50
2023-04-19T17:41:40.955Z,25.90
2023-04-19T17:44:29.321Z,25.20
2023-04-19T17:47:14.839Z,24.80
2023-04-19T17:50:10.728Z,24.40
2023-04-19T17:52:56.399Z,23.90
2023-04-19T17:55:41.563Z,23.50
2023-04-19T17:58:27.262Z,23.10
2023-04-19T18:01:13.356Z,22.60
2023-04-19T18:04:01.218Z,22.10
2023-04-19T18:06:47.075Z,21.60
2023-04-19T18:09:32.695Z,21.20
2023-04-19T18:12:21.109Z,20.80
2023-04-19T18:15:07.549Z,20.30
2023-04-19T18:17:52.928Z,19.90
2023-04-19T18:20:38.201Z,19.50
2023-04-19T18:23:23.497Z,19.00
2023-04-19T18:26:09.839Z,18.50
2023-04-19T18:28:55.321Z,18.00
2023-04-19T18:31:46.745Z,17.40
2023-04-19T18:34:31.988Z,16.80
2023-04-19T18:37:17.489Z,16.10
2023-04-19T18:40:06.905Z,15.50
2023-04-19T18:42:52.662Z,15.00
2023-04-19T18:45:38.152Z,14.60
2023-04-19T18:48:28.184Z,14.20
2023-04-19T18:51:13.869Z,13.90
2023-04-19T18:53:59.414Z,13.60
2023-04-19T18:59:34.346Z,13.20
2023-04-19T19:02:19.901Z,13.00
2023-04-19T19:05:07.429Z,12.80
2023-04-19T19:07:53.494Z,12.70
2023-04-19T19:11:07.207Z,12.50
2023-04-19T19:13:44.273Z,12.40
2023-04-19T19:16:31.017Z,12.20
2023-04-19T19:19:16.832Z,12.10
2023-04-19T19:22:09.527Z,12.00
2023-04-19T19:25:04.779Z,11.90
2023-04-19T19:28:06.262Z,11.80
2023-04-19T19:30:53.641Z,11.70
2023-04-19T19:33:40.859Z,11.60
2023-04-19T19:36:26.269Z,11.50
2023-04-19T19:39:11.867Z,11.40
2023-04-19T19:42:05.881Z,11.40
2023-04-19T19:44:55.705Z,11.30
2023-04-19T19:47:45.259Z,11.20
2023-04-19T19:53:19.780Z,11.10
2023-04-19T19:56:12.954Z,11.00
2023-04-19T19:59:02.188Z,10.90
2023-04-19T20:01:47.556Z,10.90
2023-04-19T20:04:34.993Z,10.80
2023-04-19T20:10:13.283Z,10.70
2023-04-19T20:12:58.788Z,10.70
2023-04-19T20:15:47.238Z,10.70
2023-04-19T20:18:34.981Z,10.60
2023-04-19T20:21:20.351Z,10.60
2023-04-19T20:24:06.145Z,10.50
2023-04-19T20:26:51.659Z,10.50
2023-04-19T20:29:37.309Z,10.50
2023-04-19T20:32:23.028Z,10.50
2023-04-19T20:35:11.817Z,10.40
2023-04-19T20:41:01.678Z,10.30
2023-04-19T20:43:47.155Z,10.20
2023-04-19T20:46:34.818Z,10.20
2023-04-19T20:49:20.043Z,10.10
2023-04-19T20:52:09.089Z,10.10
2023-04-19T20:54:56.245Z,10.00
2023-04-19T20:57:41.466Z,10.00
2023-04-19T21:00:27.060Z,9.90
2023-04-19T21:03:12.479Z,9.90
2023-04-19T21:05:58.091Z,9.80
2023-04-19T21:08:43.271Z,9.90
2023-04-19T21:11:28.813Z,9.80
2023-04-19T21:14:14.476Z,9.90
2023-04-19T21:17:01.409Z,9.90
2023-04-19T21:19:46.830Z,9.90
2023-04-19T21:22:32.013Z,9.90
2023-04-19T21:25:17.463Z,9.80
2023-04-19T21:28:03.087Z,9.80
2023-04-19T21:30:48.405Z,9.80
2023-04-19T21:33:33.782Z,9.80
2023-04-19T21:36:19.080Z,9.80
2023-04-19T21:39:04.795Z,9.70
2023-04-19T21:41:50.164Z,9.70
2023-04-19T21:44:38.350Z,9.70
2023-04-19T21:47:24.732Z,9.60
2023-04-19T21:50:10.677Z,9.50
2023-04-19T21:52:55.706Z,9.50
2023-04-19T21:55:41.146Z,9.50
2023-04-19T21:58:26.245Z,9.40
2023-04-19T22:01:11.684Z,9.40
2023-04-19T22:03:58.547Z,9.30
2023-04-19T22:06:45.991Z,9.20
2023-04-19T22:09:33.975Z,9.20
2023-04-19T22:12:19.703Z,9.20
2023-04-19T22:15:05.372Z,9.10
2023-04-19T22:17:51.850Z,9.10
2023-04-19T22:20:38.310Z,9.00
2023-04-19T22:23:23.713Z,9.00
2023-04-19T22:26:09.266Z,8.90
2023-04-19T22:28:54.678Z,8.90
2023-04-19T22:31:39.957Z,8.80
2023-04-19T22:34:25.205Z,8.80
2023-04-19T22:37:10.431Z,8.70
2023-04-19T22:40:01.502Z,8.70
2023-04-19T22:42:46.892Z,8.70
2023-04-19T22:45:32.146Z,8.70
2023-04-19T22:48:18.048Z,8.80
2023-04-19T22:51:03.131Z,8.80
2023-04-19T22:53:48.626Z,8.70
2023-04-19T22:56:34.228Z,8.70
2023-04-19T22:59:19.688Z,8.60
2023-04-19T23:02:05.567Z,8.60
2023-04-19T23:04:54.387Z,8.60
2023-04-19T23:07:42.522Z,8.50
2023-04-19T23:10:28.661Z,8.50
2023-04-19T23:13:15.752Z,8.40
2023-04-19T23:16:01.070Z,8.40
2023-04-19T23:18:46.780Z,8.40
2023-04-19T23:21:32.388Z,8.30
2023-04-19T23:24:19.521Z,8.20
2023-04-19T23:27:05.453Z,8.20
2023-04-19T23:29:53.496Z,8.10
2023-04-19T23:32:38.818Z,8.10
2023-04-19T23:35:24.388Z,8.10
2023-04-19T23:38:09.700Z,8.10
2023-04-19T23:40:55.289Z,8.00
2023-04-19T23:43:40.936Z,8.10
2023-04-19T23:46:26.242Z,8.10
2023-04-19T23:49:12.039Z,8.00
2023-04-19T23:51:57.462Z,8.00
2023-04-19T23:54:42.997Z,8.00
2023-04-19T23:57:28.362Z,8.00
